Time;durP1;ratioP1;P1;durP2;ratioP2;P2;SDS_P1;SDS_P2;PMS_P1;PMS_P2;Temp;Humidity;BMP_temperature;BMP_pressure;BME280_temperature;BME280_humidity;BME280_pressure;Samples;Min_cycle;Max_cycle;Signal;HPM_P1;HPM_P2
2022/05/09 00:00:29;;;;;;;6.93;4.65;;;;;;;14.77;70.57;100383.56;4303551;33;34630;-75
2022/05/09 00:03:16;;;;;;;6.97;4.37;;;;;;;15.26;68.97;100390.63;4293166;33;35021;-75
2022/05/09 00:06:02;;;;;;;7.62;4.97;;;;;;;15.36;67.92;100388.69;4303626;33;34670;-75
2022/05/09 00:08:54;;;;;;;7.32;4.78;;;;;;;14.62;71.15;100391.16;4305571;33;35291;-75
2022/05/09 00:11:41;;;;;;;7.25;4.72;;;;;;;13.70;74.42;100385.31;4303284;33;35695;-75
2022/05/09 00:14:27;;;;;;;8.18;4.87;;;;;;;14.76;71.15;100382.75;4303062;33;35293;-75
2022/05/09 00:17:13;;;;;;;7.97;5.25;;;;;;;14.61;70.58;100383.22;4303079;33;34677;-75
2022/05/09 00:20:00;;;;;;;7.60;4.65;;;;;;;14.12;72.59;100385.09;4308682;33;35991;-75
2022/05/09 00:22:52;;;;;;;6.20;4.70;;;;;;;15.16;69.13;100393.69;4311072;33;35261;-75
2022/05/09 00:25:38;;;;;;;6.68;4.70;;;;;;;15.35;68.01;100387.06;4303246;33;34170;-75
2022/05/09 00:28:25;;;;;;;6.97;4.62;;;;;;;15.60;66.84;100390.97;4308620;33;35259;-75
2022/05/09 00:31:13;;;;;;;7.78;5.28;;;;;;;15.88;65.84;100383.13;4300879;33;34964;-75
2022/05/09 00:33:59;;;;;;;8.52;4.93;;;;;;;16.06;65.12;100384.72;4302520;33;35491;-75
2022/05/09 00:36:46;;;;;;;8.43;5.35;;;;;;;15.73;66.19;100384.44;4302368;33;34178;-75
2022/05/09 00:39:33;;;;;;;10.00;5.35;;;;;;;15.93;65.84;100385.72;4305659;33;35621;-76
2022/05/09 00:42:20;;;;;;;9.27;5.62;;;;;;;15.86;66.04;100388.19;4304476;33;36026;-75
2022/05/09 00:45:08;;;;;;;8.57;5.20;;;;;;;15.73;66.72;100388.03;4292909;33;35426;-75
2022/05/09 00:47:54;;;;;;;8.10;6.05;;;;;;;15.83;66.34;100386.88;4303763;33;34255;-75
2022/05/09 00:50:41;;;;;;;9.23;6.57;;;;;;;15.81;66.64;100391.91;4306209;33;34678;-76
2022/05/09 00:53:30;;;;;;;8.52;5.50;;;;;;;15.67;67.25;100394.81;4305237;33;35945;-75
2022/05/09 00:56:29;;;;;;;9.23;5.12;;;;;;;15.65;67.44;100390.75;4300973;33;34634;-75
2022/05/09 00:59:18;;;;;;;8.07;5.80;;;;;;;15.45;68.07;100395.00;4303933;33;35067;-75
2022/05/09 01:02:04;;;;;;;7.57;5.20;;;;;;;15.52;67.90;100398.09;4292893;33;34587;-75
2022/05/09 01:04:53;;;;;;;8.25;5.93;;;;;;;15.43;68.27;100397.31;4310837;33;35611;-75
2022/05/09 01:07:39;;;;;;;8.32;5.70;;;;;;;15.13;69.36;100399.06;4301528;33;34719;-74
2022/05/09 01:10:34;;;;;;;10.73;6.50;;;;;;;15.28;69.33;100402.16;4304302;33;35231;-74
2022/05/09 01:13:23;;;;;;;10.10;6.20;;;;;;;15.30;68.97;100391.59;4292495;33;35531;-75
2022/05/09 01:16:10;;;;;;;8.52;5.45;;;;;;;15.34;69.12;100402.81;4293580;33;34876;-74
2022/05/09 01:19:00;;;;;;;9.82;5.75;;;;;;;15.04;70.01;100397.09;4294217;33;34549;-75
2022/05/09 01:21:46;;;;;;;11.23;5.80;;;;;;;15.29;69.67;100401.03;4292072;33;34186;-74
2022/05/09 01:24:32;;;;;;;11.07;5.90;;;;;;;15.26;69.61;100404.44;4297987;33;35356;-74
2022/05/09 01:27:19;;;;;;;7.70;5.62;;;;;;;15.16;70.01;100401.16;4301625;33;34969;-75
2022/05/09 01:30:14;;;;;;;10.95;6.20;;;;;;;15.17;70.19;100408.31;4290487;33;35278;-75
2022/05/09 01:33:03;;;;;;;11.63;6.03;;;;;;;15.15;70.25;100405.88;4293766;33;35070;-74
2022/05/09 01:35:55;;;;;;;9.35;5.78;;;;;;;15.09;70.56;100407.19;4299060;33;34670;-74
2022/05/09 01:38:44;;;;;;;9.35;6.22;;;;;;;15.08;70.74;100405.53;4300547;33;36010;-75
2022/05/09 01:41:39;;;;;;;8.45;5.97;;;;;;;15.05;70.70;100403.41;4296811;33;34667;-74
2022/05/09 01:44:27;;;;;;;10.98;6.07;;;;;;;14.90;71.34;100409.41;4304308;33;34043;-74
2022/05/09 01:50:18;;;;;;;14.57;6.93;;;;;;;15.05;71.43;100406.19;4305096;33;35900;-74
2022/05/09 01:53:04;;;;;;;8.90;6.28;;;;;;;15.08;71.08;100405.53;4307505;33;35226;-75
2022/05/09 01:55:50;;;;;;;10.80;6.62;;;;;;;15.07;71.06;100403.91;4302970;33;34880;-75
2022/05/09 01:58:37;;;;;;;9.57;6.47;;;;;;;15.18;70.63;100405.22;4299877;33;34606;-74
2022/05/09 02:01:26;;;;;;;9.25;6.30;;;;;;;15.25;70.37;100407.50;4302927;33;34664;-74
2022/05/09 02:04:14;;;;;;;9.75;6.50;;;;;;;14.73;72.28;100402.69;4286896;33;34879;-75
2022/05/09 02:07:01;;;;;;;11.32;7.05;;;;;;;15.18;70.82;100402.47;4319354;33;34349;-74
2022/05/09 02:09:48;;;;;;;11.90;6.32;;;;;;;15.25;70.10;100399.22;4316682;33;35586;-74
2022/05/09 02:12:34;;;;;;;9.82;6.37;;;;;;;15.11;70.14;100404.88;4306377;33;35202;-75
2022/05/09 02:15:21;;;;;;;11.23;6.25;;;;;;;14.86;70.80;100403.72;4316302;33;34205;-75
2022/05/09 02:18:07;;;;;;;17.45;6.72;;;;;;;15.01;70.41;100399.69;4317338;33;35187;-75
2022/05/09 02:20:53;;;;;;;9.38;5.57;;;;;;;14.84;70.53;100405.97;4317433;33;35697;-75
2022/05/09 02:23:40;;;;;;;11.20;6.10;;;;;;;14.45;72.15;100398.53;4307076;33;34984;-75
2022/05/09 02:26:26;;;;;;;9.68;6.10;;;;;;;14.42;72.09;100399.97;4307704;33;35532;-74
2022/05/09 02:29:13;;;;;;;10.57;7.45;;;;;;;14.81;70.34;100407.44;4317486;33;34124;-75
2022/05/09 02:32:00;;;;;;;10.02;5.80;;;;;;;14.88;69.91;100414.44;4318031;33;35285;-74
2022/05/09 02:34:46;;;;;;;9.60;6.45;;;;;;;14.91;69.97;100408.25;4321164;33;35081;-74
2022/05/09 02:37:33;;;;;;;11.95;7.05;;;;;;;14.73;70.73;100413.75;4318429;33;34648;-74
2022/05/09 02:40:19;;;;;;;10.20;6.90;;;;;;;14.19;73.69;100418.50;4317277;33;35094;-75
2022/05/09 02:43:06;;;;;;;10.93;6.65;;;;;;;14.81;71.34;100418.47;4318693;33;34310;-74
2022/05/09 02:45:53;;;;;;;12.40;6.90;;;;;;;14.14;74.35;100425.00;4318019;33;35067;-75
2022/05/09 02:48:39;;;;;;;9.70;6.72;;;;;;;14.40;73.36;100419.59;4307024;33;35470;-74
2022/05/09 02:51:29;;;;;;;8.77;6.53;;;;;;;14.57;72.09;100423.56;4319643;33;34362;-74
2022/05/09 02:54:16;;;;;;;11.57;6.35;;;;;;;14.88;70.80;100425.47;4318167;33;34154;-74
2022/05/09 02:57:03;;;;;;;9.07;6.45;;;;;;;14.81;71.01;100423.19;4319474;33;35001;-75
2022/05/09 02:59:50;;;;;;;10.55;6.82;;;;;;;14.73;71.26;100416.50;4317802;33;34838;-75
2022/05/09 03:02:36;;;;;;;10.77;7.80;;;;;;;14.80;71.45;100422.38;4313239;33;35258;-75
2022/05/09 03:05:22;;;;;;;10.82;7.20;;;;;;;14.83;71.49;100424.50;4317640;33;34609;-75
2022/05/09 03:08:10;;;;;;;11.60;6.75;;;;;;;14.77;71.88;100417.50;4318827;33;34917;-75
2022/05/09 03:10:56;;;;;;;10.60;6.95;;;;;;;14.75;72.11;100419.75;4307452;33;35523;-74
2022/05/09 03:13:42;;;;;;;10.38;6.72;;;;;;;14.81;72.10;100418.47;4318606;33;34314;-75
2022/05/09 03:16:28;;;;;;;9.18;6.40;;;;;;;14.87;71.87;100421.09;4318180;33;35549;-75
2022/05/09 03:19:16;;;;;;;10.70;7.32;;;;;;;14.84;71.67;100420.59;4319109;33;34953;-75
2022/05/09 03:22:02;;;;;;;9.80;6.82;;;;;;;14.66;72.48;100420.84;4318824;33;34638;-75
2022/05/09 03:24:48;;;;;;;12.23;6.55;;;;;;;14.71;72.86;100423.47;4319037;33;34246;-75
2022/05/09 03:27:35;;;;;;;10.73;6.15;;;;;;;14.77;72.91;100431.28;4319076;33;34713;-75
2022/05/09 03:30:22;;;;;;;9.15;6.37;;;;;;;15.04;71.96;100432.16;4317993;33;34864;-75
2022/05/09 03:33:08;;;;;;;10.93;5.68;;;;;;;15.21;71.07;100423.91;4321667;33;34643;-75
2022/05/09 03:35:57;;;;;;;9.48;5.80;;;;;;;15.32;70.05;100431.88;4315536;33;34126;-75
2022/05/09 03:38:44;;;;;;;8.40;5.35;;;;;;;15.33;69.96;100426.03;4301891;33;35589;-75
2022/05/09 03:41:31;;;;;;;9.73;5.82;;;;;;;15.41;69.88;100433.50;4316678;33;35022;-75
2022/05/09 03:44:17;;;;;;;9.52;5.97;;;;;;;15.24;70.12;100437.06;4317897;33;34682;-75
2022/05/09 03:47:03;;;;;;;10.60;5.93;;;;;;;14.95;71.76;100439.63;4318916;33;34223;-75
2022/05/09 03:49:55;;;;;;;11.15;6.22;;;;;;;15.07;71.81;100437.03;4318697;33;34637;-75
2022/05/09 03:52:42;;;;;;;8.27;5.93;;;;;;;14.61;72.95;100432.84;4319182;33;35830;-75
2022/05/09 03:55:28;;;;;;;8.02;5.57;;;;;;;14.79;73.05;100442.78;4318689;33;34852;-75
2022/05/09 03:58:15;;;;;;;9.13;6.18;;;;;;;15.26;71.62;100434.81;4318137;33;34337;-75
2022/05/09 04:01:02;;;;;;;9.98;6.50;;;;;;;14.74;72.62;100442.97;4314922;33;34585;-75
2022/05/09 04:03:48;;;;;;;10.13;6.57;;;;;;;13.84;78.10;100451.34;4317542;33;35994;-75
2022/05/09 04:06:35;;;;;;;8.63;6.03;;;;;;;14.55;74.82;100448.72;4317852;33;34563;-75
2022/05/09 04:09:23;;;;;;;11.23;5.72;;;;;;;14.36;75.22;100451.66;4317251;33;34114;-75
2022/05/09 04:12:10;;;;;;;10.23;5.60;;;;;;;14.71;71.67;100454.59;4318141;33;35607;-75
2022/05/09 04:18:01;;;;;;;10.18;5.40;;;;;;;15.39;68.94;100454.28;4319333;33;34718;-75
2022/05/09 04:20:49;;;;;;;9.55;4.82;;;;;;;15.63;67.46;100454.66;4318935;33;34312;-75
2022/05/09 04:23:36;;;;;;;9.60;5.43;;;;;;;15.85;67.07;100462.00;4308217;33;35404;-76
2022/05/09 04:26:23;;;;;;;8.05;5.28;;;;;;;15.85;68.03;100461.16;4318428;33;34940;-75
2022/05/09 04:29:09;;;;;;;10.38;5.55;;;;;;;16.08;67.90;100461.78;4318665;33;34606;-75
2022/05/09 04:31:55;;;;;;;8.68;5.55;;;;;;;16.18;68.38;100459.47;4318194;33;34229;-75
2022/05/09 04:34:42;;;;;;;13.52;5.93;;;;;;;16.07;68.65;100463.72;4318122;33;34594;-74
2022/05/09 04:37:28;;;;;;;9.18;5.30;;;;;;;16.29;68.37;100464.69;4317474;33;35030;-74
2022/05/09 04:40:17;;;;;;;8.32;5.22;;;;;;;16.24;68.79;100476.72;4317790;33;34668;-74
2022/05/09 04:43:03;;;;;;;19.20;5.95;;;;;;;16.40;68.87;100474.25;4307702;33;35072;-74
2022/05/09 04:45:50;;;;;;;7.87;4.90;;;;;;;16.49;68.65;100476.97;4307329;33;34730;-77
2022/05/09 04:48:38;;;;;;;8.35;5.03;;;;;;;16.81;67.97;100475.56;4302452;33;33136;-79
2022/05/09 04:51:23;;;;;;;8.98;5.72;;;;;;;16.72;67.38;100474.78;4318001;33;34609;-79
2022/05/09 04:54:10;;;;;;;16.10;7.20;;;;;;;16.94;66.50;100473.75;4315534;33;34324;-75
2022/05/09 04:56:56;;;;;;;7.78;5.35;;;;;;;17.01;66.31;100477.59;4315095;33;35348;-79
2022/05/09 04:59:42;;;;;;;9.73;5.20;;;;;;;17.04;66.58;100485.22;4315930;33;33849;-79
2022/05/09 05:02:29;;;;;;;9.23;5.12;;;;;;;17.20;66.44;100479.12;4317426;33;34618;-79
2022/05/09 05:05:15;;;;;;;9.88;5.22;;;;;;;17.23;66.75;100476.50;4285807;33;34215;-81
2022/05/09 05:08:02;;;;;;;10.85;5.03;;;;;;;17.34;66.58;100476.91;4281413;33;34543;-76
2022/05/09 05:10:53;;;;;;;8.52;4.87;;;;;;;17.26;66.06;100475.00;4284789;33;36062;-76
2022/05/09 05:13:43;;;;;;;7.65;4.75;;;;;;;16.82;68.83;100488.25;4293209;33;34756;-77
2022/05/09 05:19:36;;;;;;;8.23;4.15;;;;;;;17.36;66.12;100482.09;4288661;33;34608;-74
2022/05/09 05:22:27;;;;;;;7.12;4.47;;;;;;;17.45;65.42;100482.88;4284341;33;34995;-74
2022/05/09 05:25:21;;;;;;;10.05;4.93;;;;;;;17.48;65.53;100484.97;4295754;33;34585;-76
2022/05/09 05:28:08;;;;;;;9.40;4.80;;;;;;;17.37;67.03;100487.31;4286903;33;35064;-77
2022/05/09 05:30:54;;;;;;;8.30;4.50;;;;;;;17.90;65.33;100496.91;4285848;33;34639;-76
2022/05/09 05:33:41;;;;;;;8.30;4.37;;;;;;;17.88;63.47;100490.88;4296218;33;35024;-75
2022/05/09 05:36:28;;;;;;;6.53;4.53;;;;;;;17.89;64.42;100498.03;4297216;33;34702;-75
2022/05/09 05:39:15;;;;;;;9.13;4.25;;;;;;;18.07;64.22;100495.94;4288739;33;33137;-74
2022/05/09 05:42:01;;;;;;;10.60;5.62;;;;;;;18.04;65.38;100504.09;4297907;33;35649;-73
2022/05/09 05:44:48;;;;;;;9.43;5.03;;;;;;;17.85;66.55;100502.66;4286459;33;34946;-73
2022/05/09 05:47:34;;;;;;;9.85;4.87;;;;;;;17.85;66.18;100508.19;4296190;33;34875;-74
2022/05/09 05:50:23;;;;;;;10.18;5.40;;;;;;;17.83;66.20;100515.22;4288354;33;34348;-75
2022/05/09 05:53:09;;;;;;;12.57;5.68;;;;;;;18.01;65.59;100507.56;4299055;33;34665;-73
2022/05/09 05:55:55;;;;;;;11.30;5.20;;;;;;;17.95;66.01;100520.81;4296671;33;34959;-76
2022/05/09 05:58:41;;;;;;;10.25;5.70;;;;;;;18.19;65.26;100518.16;4290434;33;34750;-74
2022/05/09 06:01:28;;;;;;;9.13;5.43;;;;;;;18.32;64.97;100512.66;4288413;33;34149;-76
2022/05/09 06:04:14;;;;;;;10.20;5.80;;;;;;;18.46;64.75;100517.91;4306314;33;34802;-76
2022/05/09 06:07:00;;;;;;;9.57;5.43;;;;;;;18.55;64.41;100513.06;4318875;33;34708;-76
2022/05/09 06:09:47;;;;;;;13.23;6.07;;;;;;;18.61;63.31;100522.78;4318611;33;34611;-80
2022/05/09 06:12:34;;;;;;;12.00;6.12;;;;;;;17.81;64.75;100526.62;4318945;33;35146;-77
2022/05/09 06:15:28;;;;;;;14.02;6.65;;;;;;;18.03;65.45;100533.00;4306241;33;34557;-76
2022/05/09 06:18:15;;;;;;;11.27;6.35;;;;;;;17.65;66.72;100533.94;4318297;33;36171;-76
2022/05/09 06:21:03;;;;;;;10.15;5.90;;;;;;;18.35;64.76;100537.75;4316954;33;34584;-79
2022/05/09 06:23:49;;;;;;;11.15;5.90;;;;;;;18.46;64.54;100531.78;4307108;33;34139;-80
2022/05/09 06:26:36;;;;;;;10.07;5.05;;;;;;;18.63;63.93;100535.16;4318934;33;34524;-78
2022/05/09 06:29:23;;;;;;;10.02;5.22;;;;;;;18.50;63.85;100532.69;4325382;33;34555;-78
2022/05/09 06:32:30;;;;;;;8.48;4.85;;;;;;;19.12;62.71;100542.78;4309514;33;34136;-75
2022/05/09 06:35:23;;;;;;;11.70;5.40;;;;;;;19.31;60.91;100528.31;4320039;33;34246;-76
2022/05/09 06:38:14;;;;;;;8.25;5.30;;;;;;;19.19;61.21;100531.09;4308543;33;34715;-78
2022/05/09 06:41:03;;;;;;;7.43;4.30;;;;;;;19.05;61.11;100540.59;4319003;33;35942;-77
2022/05/09 06:43:49;;;;;;;8.15;4.95;;;;;;;19.02;59.68;100537.69;4318880;33;35878;-76
2022/05/09 06:46:36;;;;;;;7.53;4.90;;;;;;;19.25;60.08;100541.63;4318261;33;34351;-77
2022/05/09 06:49:22;;;;;;;8.25;4.60;;;;;;;19.19;60.76;100543.03;4317921;33;34428;-78
2022/05/09 06:52:09;;;;;;;12.57;5.87;;;;;;;17.77;63.06;100545.87;4306347;33;34895;-79
2022/05/09 06:54:55;;;;;;;12.32;5.62;;;;;;;18.26;65.67;100559.22;4313211;33;36137;-79
2022/05/09 06:57:43;;;;;;;11.35;5.95;;;;;;;17.46;67.07;100551.00;4317022;33;35144;-80
2022/05/09 07:00:29;;;;;;;10.63;5.32;;;;;;;17.25;68.71;100562.03;4308422;33;34251;-75
2022/05/09 07:03:17;;;;;;;13.50;5.47;;;;;;;17.08;69.83;100562.91;4319069;33;35002;-75
2022/05/09 07:06:03;;;;;;;11.20;5.75;;;;;;;17.60;65.41;100561.81;4316288;33;35367;-75
2022/05/09 07:08:49;;;;;;;14.32;7.75;;;;;;;17.53;67.10;100570.66;4316838;33;34288;-79
2022/05/09 07:11:37;;;;;;;15.68;8.73;;;;;;;17.38;68.57;100574.00;4314820;33;34581;-78
2022/05/09 07:14:22;;;;;;;15.15;9.25;;;;;;;17.27;68.96;100573.56;4303210;33;34952;-79
2022/05/09 07:17:09;;;;;;;17.15;9.10;;;;;;;17.14;69.43;100574.62;4314666;33;34615;-80
2022/05/09 07:19:55;;;;;;;18.20;10.27;;;;;;;16.62;71.24;100578.31;4314536;33;34190;-79
2022/05/09 07:22:42;;;;;;;14.98;9.52;;;;;;;16.64;72.95;100579.59;4318087;33;34742;-79
2022/05/09 07:25:28;;;;;;;15.32;9.32;;;;;;;16.99;72.23;100576.78;4317236;33;35011;-79
2022/05/09 07:28:18;;;;;;;13.38;8.82;;;;;;;17.15;71.20;100574.28;4316660;33;35412;-79
2022/05/09 07:31:05;;;;;;;16.05;9.55;;;;;;;17.01;72.78;100584.75;4316729;33;35240;-78
2022/05/09 07:33:51;;;;;;;19.73;9.57;;;;;;;16.63;74.81;100583.53;4317975;33;34800;-80
2022/05/09 07:36:38;;;;;;;15.18;8.82;;;;;;;16.82;73.45;100583.19;4319817;33;34945;-79
2022/05/09 07:39:26;;;;;;;14.00;8.80;;;;;;;16.59;75.41;100581.72;4313482;33;34616;-77
2022/05/09 07:42:17;;;;;;;15.45;8.02;;;;;;;17.37;72.53;100580.69;4314241;33;34299;-77
2022/05/09 07:45:05;;;;;;;18.73;7.85;;;;;;;17.41;72.05;100576.91;4314034;33;36090;-78
2022/05/09 07:47:50;;;;;;;13.85;6.75;;;;;;;16.93;71.96;100578.09;4315379;33;34743;-78
2022/05/09 07:50:37;;;;;;;17.95;6.82;;;;;;;17.78;69.27;100579.97;4311119;33;34693;-77
2022/05/09 07:53:26;;;;;;;17.92;7.50;;;;;;;17.90;66.79;100574.53;4305933;33;34133;-77
2022/05/09 07:56:17;;;;;;;13.13;6.72;;;;;;;17.67;67.09;100575.94;4306786;33;34189;-77
2022/05/09 07:59:04;;;;;;;12.18;5.97;;;;;;;17.55;65.10;100582.22;4314951;33;35641;-77
2022/05/09 08:01:52;;;;;;;9.82;5.45;;;;;;;18.00;64.94;100581.62;4317338;33;34322;-77
2022/05/09 08:04:39;;;;;;;9.00;5.00;;;;;;;17.87;64.01;100577.16;4317341;33;34371;-77
2022/05/09 08:07:25;;;;;;;8.65;5.28;;;;;;;18.64;60.84;100588.72;4319394;33;35333;-77
2022/05/09 08:10:15;;;;;;;9.43;5.30;;;;;;;18.49;61.67;100581.03;4310043;33;33710;-77
2022/05/09 08:13:02;;;;;;;10.00;5.72;;;;;;;18.37;61.28;100584.56;4315132;33;34388;-79
2022/05/09 08:15:48;;;;;;;8.90;5.37;;;;;;;18.15;61.78;100588.50;4314718;33;35209;-79
2022/05/09 08:18:35;;;;;;;21.70;12.57;;;;;;;18.51;60.11;100575.97;4315223;33;35233;-76
2022/05/09 08:21:21;;;;;;;8.52;5.30;;;;;;;18.82;59.99;100579.09;4312839;33;35016;-76
2022/05/09 08:24:08;;;;;;;10.13;6.57;;;;;;;19.52;58.32;100583.75;4315138;33;34633;-76
2022/05/09 08:26:54;;;;;;;9.02;5.85;;;;;;;18.23;61.36;100579.31;4312308;33;35146;-75
2022/05/09 08:29:40;;;;;;;7.32;4.78;;;;;;;18.25;60.87;100584.53;4314334;33;35282;-74
2022/05/09 08:32:27;;;;;;;10.32;5.03;;;;;;;19.01;58.18;100574.94;4314369;33;35970;-75
2022/05/09 08:35:13;;;;;;;7.97;4.45;;;;;;;19.17;58.35;100572.31;4316796;33;35540;-75
2022/05/09 08:37:59;;;;;;;9.07;4.53;;;;;;;19.02;57.47;100577.38;4303553;33;34002;-75
2022/05/09 08:41:05;;;;;;;9.50;3.75;;;;;;;19.70;56.20;100570.47;4316994;33;35560;-75
2022/05/09 08:44:23;;;;;;;10.88;5.53;;;;;;;18.83;57.37;100574.34;4315819;33;34983;-76
2022/05/09 08:47:29;;;;;;;7.65;4.22;;;;;;;19.85;56.56;100566.16;4315915;33;35465;-77
2022/05/09 08:50:51;;;;;;;7.97;4.30;;;;;;;19.82;56.47;100566.84;4312246;33;34573;-78
2022/05/09 08:53:41;;;;;;;8.23;4.15;;;;;;;20.62;53.24;100575.16;4311695;33;34986;-78
2022/05/09 08:56:27;;;;;;;5.68;3.83;;;;;;;19.59;54.80;100575.66;4315521;33;34894;-80
2022/05/09 08:59:21;;;;;;;7.05;4.10;;;;;;;20.46;52.80;100574.28;4318620;33;34399;-79
2022/05/09 09:02:18;;;;;;;6.03;3.42;;;;;;;20.63;54.38;100579.56;4316321;33;33984;-79
2022/05/09 09:05:05;;;;;;;5.75;3.12;;;;;;;20.29;51.11;100577.34;4313251;33;34458;-79
2022/05/09 09:08:28;;;;;;;9.27;4.57;;;;;;;20.03;50.83;100575.81;4315956;33;36408;-77
2022/05/09 09:11:39;;;;;;;7.28;3.47;;;;;;;20.01;50.50;100575.38;4318268;33;34638;-77
2022/05/09 09:14:28;;;;;;;13.27;3.67;;;;;;;20.13;50.51;100577.31;4319173;33;34200;-79
2022/05/09 09:17:43;;;;;;;11.55;3.83;;;;;;;20.54;49.75;100576.13;4319515;33;34827;-78
2022/05/09 09:20:34;;;;;;;6.10;3.45;;;;;;;20.47;49.62;100584.25;4314574;33;34592;-77
2022/05/09 09:23:39;;;;;;;4.85;3.60;;;;;;;20.14;48.38;100584.50;4303920;33;34193;-78
2022/05/09 09:26:47;;;;;;;6.82;3.75;;;;;;;20.84;46.49;100584.09;4316017;33;34156;-78
2022/05/09 09:29:47;;;;;;;6.50;3.40;;;;;;;20.91;46.23;100578.69;4313350;33;34700;-77
2022/05/09 09:32:33;;;;;;;8.07;4.30;;;;;;;20.83;46.44;100585.25;4316992;33;35054;-78
2022/05/09 09:35:35;;;;;;;6.25;3.55;;;;;;;20.07;47.93;100576.75;4314198;33;34732;-79
2022/05/09 09:38:39;;;;;;;6.10;3.55;;;;;;;20.75;47.10;100580.66;4313551;33;35307;-76
2022/05/09 09:41:33;;;;;;;6.28;3.83;;;;;;;20.26;47.50;100589.19;4315806;33;34005;-76
2022/05/09 09:44:22;;;;;;;12.93;5.68;;;;;;;19.90;48.18;100583.41;4314116;33;35619;-75
2022/05/09 09:47:19;;;;;;;8.45;4.00;;;;;;;20.37;47.78;100585.56;4313442;33;34666;-76
2022/05/09 09:50:25;;;;;;;6.90;3.03;;;;;;;20.49;48.12;100584.72;4316166;33;34158;-77
2022/05/09 09:53:47;;;;;;;5.60;3.55;;;;;;;20.17;47.50;100581.00;4305139;33;34398;-76
2022/05/09 09:56:34;;;;;;;7.05;3.83;;;;;;;20.31;47.69;100575.03;4317522;33;34948;-77
2022/05/09 09:59:25;;;;;;;6.37;3.45;;;;;;;20.68;46.80;100578.50;4318757;33;34681;-76
2022/05/09 10:02:30;;;;;;;5.20;3.25;;;;;;;21.02;44.94;100577.00;4307371;33;35157;-77
2022/05/09 10:05:30;;;;;;;5.15;3.28;;;;;;;20.57;47.20;100572.63;4308000;33;35704;-77
2022/05/09 10:08:35;;;;;;;6.22;3.53;;;;;;;21.38;43.15;100568.75;4317805;33;34912;-77
2022/05/09 10:11:25;;;;;;;5.55;3.42;;;;;;;21.52;44.16;100560.72;4317664;33;35456;-77
2022/05/09 10:14:12;;;;;;;6.45;3.60;;;;;;;22.42;43.08;100553.09;4317456;33;35111;-77
2022/05/09 10:17:19;;;;;;;5.37;3.53;;;;;;;23.02;42.92;100549.03;4317306;33;34510;-76
2022/05/09 10:20:30;;;;;;;6.45;3.75;;;;;;;23.26;41.84;100545.84;4317286;33;35927;-76
2022/05/09 10:26:27;;;;;;;6.35;4.25;;;;;;;23.82;37.34;100537.88;4318306;33;34065;-77
2022/05/09 10:29:16;;;;;;;5.45;3.58;;;;;;;23.35;37.69;100534.41;4305771;33;35588;-79
2022/05/09 10:32:06;;;;;;;4.95;3.55;;;;;;;23.97;38.03;100531.31;4312520;33;34904;-78
2022/05/09 10:35:05;;;;;;;8.52;4.50;;;;;;;24.24;37.58;100527.22;4316058;33;35772;-78
2022/05/09 10:37:59;;;;;;;6.75;3.87;;;;;;;24.12;38.78;100519.09;4315187;33;35248;-78
2022/05/09 10:40:49;;;;;;;8.02;4.15;;;;;;;23.85;38.45;100520.31;4304414;33;34627;-77
2022/05/09 10:44:15;;;;;;;7.07;4.07;;;;;;;23.35;39.30;100521.22;4304540;33;36017;-78
2022/05/09 10:47:15;;;;;;;7.65;3.85;;;;;;;23.66;37.67;100513.66;4312806;33;35560;-79
2022/05/09 10:50:21;;;;;;;7.82;4.12;;;;;;;22.76;38.88;100511.44;4305814;33;35058;-76
2022/05/09 10:53:29;;;;;;;5.40;3.50;;;;;;;23.12;38.34;100512.06;4317370;33;34674;-83
2022/05/09 10:56:27;;;;;;;6.03;4.12;;;;;;;24.48;37.15;100507.50;4318089;33;35951;-78
2022/05/09 10:59:25;;;;;;;5.80;3.87;;;;;;;25.10;35.98;100505.66;4307166;33;35468;-78
2022/05/09 11:02:31;;;;;;;6.70;4.12;;;;;;;24.74;37.08;100503.75;4306698;33;34467;-78
2022/05/09 11:05:17;;;;;;;6.62;3.28;;;;;;;23.77;38.16;100492.25;4306005;33;35630;-78
2022/05/09 11:08:21;;;;;;;6.85;3.90;;;;;;;24.82;36.46;100497.03;4313329;33;34870;-77
2022/05/09 11:11:19;;;;;;;6.68;3.80;;;;;;;24.85;35.45;100494.25;4316130;33;33249;-77
2022/05/09 11:14:33;;;;;;;6.03;4.40;;;;;;;24.17;36.30;100493.56;4316363;33;35087;-80
2022/05/09 11:17:30;;;;;;;7.00;4.07;;;;;;;25.00;37.47;100483.94;4317819;33;34703;-79
2022/05/09 11:20:27;;;;;;;4.97;4.03;;;;;;;24.69;35.25;100496.50;4315059;33;35050;-81
2022/05/09 11:23:35;;;;;;;7.50;4.32;;;;;;;25.27;34.19;100481.78;4316323;33;34623;-78
2022/05/09 11:26:31;;;;;;;6.45;4.40;;;;;;;24.52;35.66;100480.34;4318684;33;34243;-79
2022/05/09 11:29:35;;;;;;;5.55;4.00;;;;;;;25.02;35.45;100475.16;4317438;33;34642;-77
2022/05/09 11:32:24;;;;;;;7.78;4.32;;;;;;;25.62;33.58;100471.97;4317027;33;35041;-81
2022/05/09 11:35:36;;;;;;;5.87;4.22;;;;;;;26.06;32.76;100470.16;4315796;33;34555;-80
2022/05/09 11:38:28;;;;;;;6.03;3.70;;;;;;;25.62;33.46;100462.75;4307123;33;34060;-80
2022/05/09 11:41:30;;;;;;;8.20;4.30;;;;;;;25.85;32.61;100460.47;4318498;33;34690;-79
2022/05/09 11:44:19;;;;;;;7.37;4.07;;;;;;;26.55;31.20;100454.63;4316509;33;36016;-79
2022/05/09 11:47:24;;;;;;;9.05;4.50;;;;;;;26.11;31.75;100450.91;4307910;33;34624;-78
2022/05/09 11:50:16;;;;;;;5.30;3.83;;;;;;;26.57;31.71;100455.84;4317530;33;35134;-78
2022/05/09 11:53:04;;;;;;;8.13;4.00;;;;;;;24.42;36.91;100465.00;4317101;33;34419;-76
2022/05/09 11:55:52;;;;;;;5.15;3.25;;;;;;;23.38;39.41;100462.94;4320267;33;34951;-77
2022/05/09 11:58:39;;;;;;;13.27;3.80;;;;;;;21.60;36.75;100476.06;4316885;33;34603;-79
2022/05/09 12:01:55;;;;;;;11.07;3.10;;;;;;;21.29;38.42;100485.31;4315637;33;34176;-76
2022/05/09 12:04:42;;;;;;;7.12;2.40;;;;;;;21.66;43.63;100485.75;4315218;33;34088;-78
2022/05/09 12:07:28;;;;;;;10.38;2.53;;;;;;;20.49;45.27;100480.87;4314089;33;35012;-77
2022/05/09 12:10:20;;;;;;;5.93;3.25;;;;;;;20.56;47.78;100473.56;4315866;33;34720;-77
2022/05/09 12:13:14;;;;;;;4.22;3.05;;;;;;;20.09;49.58;100463.13;4314728;33;35082;-77
2022/05/09 12:16:01;;;;;;;9.43;3.17;;;;;;;19.92;49.50;100466.22;4315524;33;35413;-77
2022/05/09 12:18:59;;;;;;;5.32;2.83;;;;;;;20.29;47.64;100463.25;4315298;33;35101;-76
2022/05/09 12:22:24;;;;;;;5.22;2.80;;;;;;;19.20;49.61;100464.06;4307284;33;154906;-78
2022/05/09 12:25:31;;;;;;;4.85;3.30;;;;;;;19.48;50.10;100466.91;4314907;33;35707;-78
2022/05/09 12:28:18;;;;;;;6.32;3.87;;;;;;;18.25;58.50;100465.25;4313238;33;35354;-77
2022/05/09 12:31:06;;;;;;;6.50;2.90;;;;;;;19.01;57.31;100474.97;4311935;33;34726;-79
2022/05/09 12:33:53;;;;;;;6.35;2.70;;;;;;;19.64;53.89;100468.97;4315259;33;34845;-79
2022/05/09 12:36:39;;;;;;;8.30;3.53;;;;;;;19.89;50.50;100476.09;4313078;33;33942;-80
2022/05/09 12:39:31;;;;;;;8.65;4.50;;;;;;;18.17;61.48;100497.47;4314325;33;34388;-80
2022/05/09 12:42:36;;;;;;;;;;;;;;;18.79;60.66;100493.72;4314942;33;35534;-81
2022/05/09 12:45:30;;;;;;;7.40;4.78;;;;;;;19.06;63.03;100491.41;4314739;33;35697;-81
2022/05/09 12:48:16;;;;;;;7.78;3.83;;;;;;;19.33;61.68;100501.81;4305680;33;33614;-80
2022/05/09 12:51:10;;;;;;;6.07;3.97;;;;;;;19.71;60.77;100499.78;4316202;33;35426;-79
2022/05/09 12:53:57;;;;;;;10.52;4.53;;;;;;;19.52;62.00;100500.38;4301034;33;34726;-80
2022/05/09 12:56:49;;;;;;;8.10;4.95;;;;;;;20.13;59.82;100503.00;4315561;33;34084;-79
2022/05/09 12:59:51;;;;;;;9.07;5.10;;;;;;;19.92;62.59;100507.94;4303687;33;34186;-81
2022/05/09 13:02:37;;;;;;;10.75;4.75;;;;;;;20.08;61.31;100506.03;4303515;33;34743;-81
2022/05/09 13:05:41;;;;;;;10.00;5.03;;;;;;;20.39;60.14;100518.41;4312805;33;34953;-82
2022/05/09 13:08:36;;;;;;;9.43;5.10;;;;;;;20.57;60.57;100522.50;4315143;33;35515;-81
2022/05/09 13:11:32;;;;;;;8.45;4.97;;;;;;;20.87;60.71;100524.87;4314007;33;33827;-82
2022/05/09 13:14:37;;;;;;;8.38;5.10;;;;;;;20.52;61.31;100525.53;4307209;33;34763;-78
2022/05/09 13:17:41;;;;;;;8.85;4.65;;;;;;;20.87;61.75;100528.47;4307598;33;35037;-78
2022/05/09 13:20:31;;;;;;;8.48;4.90;;;;;;;20.94;61.50;100513.09;4318110;33;35593;-79
2022/05/09 13:23:25;;;;;;;12.27;5.15;;;;;;;19.58;65.99;100510.12;4308053;33;35103;-79